EGCCEGOV

Guest
Details From EGCC - Manchester
To EGOV - Valley
Flight Number -
Tags Generated
Created
Modified
Stats Distance 80 nm / 149 km
Max Altitude 0 ft / 0 m
Waypoints 2
Social Downloads 2
Likes 0
Share VATSIM

Download

Looking for another format? Having issues loading an existing format? Contact us
Advertisement - Login to hide

Notes

Generated

Route

EGCC EGOV

ID Type Via Altitude Latitude Longitude Leg Dist Tot Dist Heading (true) Name
O EGCC APT - 0 ft / 0 m 53.33197˚ -2.31066˚ - 0 nm - -
O EGOV APT - 0 ft / 0 m 53.24574˚ -4.54578˚ 80 nm 80 nm 267° / 265° -

Altitude Profile

Advertisement - Login to hide

EGCC

Details ICAO EGCC (MAN)
Name Manchester Intl
Region United Kingdom
Timezone Europe/London (UTC+0.0)
Stats Elevation 257 ft / 78 m (AMSL)
Location 53.347141° -2.283954°
Runways 2
Magnetic Variation 1.462° W

METAR

EGCC 130120Z AUTO 18005KT 150V210 6000 BKN013 BKN037 03/02 Q0999 TEMPO BKN004

Decode

TAF

TAF EGCC 122302Z 1300/1406 21008KT 9999 SCT010 TEMPO 1300/1307 4000 BR BKN003 PROB30 TEMPO 1300/1305 0300 FZFG BKN001 TEMPO 1307/1406 6000 SHRA BKN010 BECMG 1310/1313 28015KT PROB30 TEMPO 1310/1313 27018G28KT 4000 +SHRA BKN006 PROB30 TEMPO 1317/1406 27020G30KT 1400 +SHRASN BKN002 BKN020CB

Decode

Departure Runways

ID Width Length Bearing (true) Bearing (mag) Surface Threshold Offset Overrun Length
05L 151 ft / 46 m 9,981 ft / 3,042 m 50.99° 52.45° Asphalt 1,401 ft / 427 m 0 ft / 0 m
05R 151 ft / 46 m 9,952 ft / 3,033 m 50.97° 52.43° Asphalt 0 ft / 0 m 26 ft / 8 m
23L 151 ft / 46 m 9,952 ft / 3,033 m 231.00° 232.46° Asphalt 561 ft / 171 m 0 ft / 0 m
23R 151 ft / 46 m 9,981 ft / 3,042 m 231.02° 232.48° Asphalt 597 ft / 182 m 0 ft / 0 m

EGOV

Details ICAO EGOV (HLY)
Name RAF Valley
Region United Kingdom
Timezone Europe/London (UTC+0.0)
Stats Elevation 37 ft / 11 m (AMSL)
Location 53.248528° -4.536473°
Runways 3
Magnetic Variation 2.312° W

METAR

EGOV 130050Z AUTO 26015KT 9999 FEW024/// BKN038/// 08/04 Q1000 RERA

Decode

TAF

Not found

Destination Runways

ID Width Length Bearing (true) Bearing (mag) Surface Threshold Offset Overrun Length
01 157 ft / 48 m 5,470 ft / 1,667 m 6.15° 8.46° Asphalt 72 ft / 22 m 7 ft / 2 m
08 154 ft / 47 m 4,174 ft / 1,272 m 69.67° 71.98° Asphalt 702 ft / 214 m 0 ft / 0 m
14 154 ft / 47 m 7,551 ft / 2,302 m 130.54° 132.85° Asphalt 59 ft / 18 m 0 ft / 0 m
19 157 ft / 48 m 5,470 ft / 1,667 m 186.16° 188.47° Asphalt 213 ft / 65 m 0 ft / 0 m
26 154 ft / 47 m 4,174 ft / 1,272 m 249.69° 252.00° Asphalt 400 ft / 122 m 0 ft / 0 m
32 154 ft / 47 m 7,551 ft / 2,302 m 310.56° 312.87° Asphalt 0 ft / 0 m 627 ft / 191 m

Approach Navaids

Runway Type Ident Frequency Range Bearing (true) Bearing (mag) Slope Elevation
14 Localiser VY 109.70 MHz 18 nm / 33 km 132.00° 134.31° - 37 ft / 11 m (AMSL)
14 Glidescope VY 109.70 MHz 10 nm / 19 km 132.00° 134.31° 3.00° 37 ft / 11 m (AMSL)

Popular Alternatives